Time;durP1;ratioP1;P1;durP2;ratioP2;P2;SDS_P1;SDS_P2;PMS_P1;PMS_P2;Temp;Humidity;BMP_temperature;BMP_pressure;BME280_temperature;BME280_humidity;BME280_pressure;Samples;Min_cycle;Max_cycle;Signal;HPM_P1;HPM_P2
2021/08/01 00:00:10;;;;;;;3.35;2.60;;;16.60;84.60;;;;;;4992411;28;20030;-52
2021/08/01 00:02:35;;;;;;;4.05;2.35;;;16.60;84.80;;;;;;4989891;28;20050;-56
2021/08/01 00:05:01;;;;;;;2.60;2.15;;;16.60;85.10;;;;;;4986504;28;20030;-53
2021/08/01 00:07:26;;;;;;;2.90;2.58;;;16.60;85.10;;;;;;4986640;28;20038;-55
2021/08/01 00:10:07;;;;;;;2.75;2.47;;;16.60;85.10;;;;;;4987505;28;20034;-55
2021/08/01 00:12:33;;;;;;;3.65;2.60;;;16.60;85.30;;;;;;4986791;28;20038;-54
2021/08/01 00:14:59;;;;;;;3.53;3.05;;;16.50;85.30;;;;;;4985943;28;20054;-56
2021/08/01 00:17:25;;;;;;;10.30;4.13;;;16.50;85.80;;;;;;4991091;28;20496;-57
2021/08/01 00:19:51;;;;;;;5.10;2.90;;;16.50;85.80;;;;;;4985404;28;20125;-55
2021/08/01 00:22:17;;;;;;;3.20;2.30;;;16.50;86.00;;;;;;4986833;28;20368;-52
2021/08/01 00:24:42;;;;;;;4.47;2.45;;;16.50;86.00;;;;;;4986445;28;20037;-54
2021/08/01 00:27:08;;;;;;;4.32;2.15;;;16.50;86.50;;;;;;4987543;28;20380;-52
2021/08/01 00:29:34;;;;;;;3.58;2.38;;;16.50;86.10;;;;;;4988586;28;20042;-52
2021/08/01 00:32:00;;;;;;;3.05;2.42;;;16.40;86.20;;;;;;4987228;28;20034;-57
2021/08/01 00:34:26;;;;;;;5.35;2.67;;;16.40;86.50;;;;;;4986628;28;20030;-52
2021/08/01 00:36:52;;;;;;;4.28;2.70;;;16.40;86.50;;;;;;4986402;28;20514;-52
2021/08/01 00:39:18;;;;;;;5.72;2.95;;;16.40;86.80;;;;;;4986289;28;20038;-53
2021/08/01 00:41:43;;;;;;;4.35;2.50;;;16.40;87.00;;;;;;4984348;28;20022;-56
2021/08/01 00:44:09;;;;;;;6.40;2.35;;;16.40;87.50;;;;;;4985588;28;20026;-55
2021/08/01 00:46:34;;;;;;;5.30;2.85;;;16.30;87.30;;;;;;4986881;28;20030;-56
2021/08/01 00:49:01;;;;;;;2.95;2.58;;;16.30;87.30;;;;;;4983777;28;20033;-55
2021/08/01 00:51:28;;;;;;;3.63;2.83;;;16.30;87.40;;;;;;4989339;28;20037;-56
2021/08/01 00:53:57;;;;;;;5.50;3.30;;;16.30;87.80;;;;;;4984822;28;20026;-54
2021/08/01 00:56:23;;;;;;;4.57;3.00;;;16.30;87.90;;;;;;4986834;28;20026;-54
2021/08/01 00:58:49;;;;;;;5.65;2.78;;;16.30;88.00;;;;;;4989936;28;20259;-52
2021/08/01 01:01:18;;;;;;;3.65;2.70;;;16.30;88.10;;;;;;4986687;28;20030;-55
2021/08/01 01:03:57;;;;;;;8.95;3.25;;;16.20;88.30;;;;;;4989763;28;20113;-56
2021/08/01 01:06:31;;;;;;;3.58;2.50;;;16.30;88.20;;;;;;4988127;28;20070;-54
2021/08/01 01:09:12;;;;;;;3.92;2.40;;;16.20;88.30;;;;;;4987331;28;20399;-53
2021/08/01 01:11:41;;;;;;;5.18;3.35;;;16.20;88.50;;;;;;4989432;28;20128;-55
2021/08/01 01:14:11;;;;;;;6.40;3.65;;;16.20;88.50;;;;;;4991372;28;20029;-53
2021/08/01 01:16:42;;;;;;;4.72;2.85;;;16.20;89.20;;;;;;4989291;28;20025;-56
2021/08/01 01:19:13;;;;;;;3.55;3.20;;;16.20;88.70;;;;;;4989811;28;20022;-55
2021/08/01 01:21:54;;;;;;;3.17;2.55;;;16.10;88.90;;;;;;4994470;28;20103;-54
2021/08/01 01:24:26;;;;;;;3.30;2.92;;;16.10;89.20;;;;;;4987197;28;20042;-55
2021/08/01 01:27:02;;;;;;;4.97;3.40;;;16.10;89.60;;;;;;4993507;28;20101;-54
2021/08/01 01:29:49;;;;;;;3.90;3.40;;;16.10;89.40;;;;;;4996833;28;20035;-54
2021/08/01 01:32:26;;;;;;;3.90;3.33;;;16.10;89.50;;;;;;4991208;28;20364;-57
2021/08/01 01:35:03;;;;;;;6.40;3.55;;;16.00;89.70;;;;;;4988735;28;20066;-54
2021/08/01 01:37:30;;;;;;;4.32;2.90;;;16.00;89.80;;;;;;4990832;28;20037;-52
2021/08/01 01:39:58;;;;;;;3.55;2.70;;;15.90;89.70;;;;;;4989756;28;20058;-53
2021/08/01 01:42:24;;;;;;;3.53;3.08;;;15.90;89.80;;;;;;5003038;28;20023;-55
2021/08/01 01:44:50;;;;;;;6.20;3.40;;;15.90;89.80;;;;;;4989691;28;20487;-55
2021/08/01 01:47:17;;;;;;;7.25;3.65;;;15.90;90.00;;;;;;4990310;28;20539;-55
2021/08/01 01:49:43;;;;;;;6.82;3.85;;;15.90;90.20;;;;;;4989368;28;20388;-54
2021/08/01 01:52:11;;;;;;;5.53;4.25;;;15.90;90.10;;;;;;4989578;28;20069;-54
2021/08/01 01:54:37;;;;;;;3.95;3.63;;;15.90;90.20;;;;;;4988035;28;20030;-57
2021/08/01 01:57:06;;;;;;;3.80;3.17;;;15.90;90.30;;;;;;4989484;28;20030;-56
2021/08/01 01:59:32;;;;;;;4.03;3.67;;;15.80;90.30;;;;;;4993954;28;20125;-56
2021/08/01 02:01:58;;;;;;;3.78;3.35;;;15.80;90.40;;;;;;4989782;28;20129;-55
2021/08/01 02:04:23;;;;;;;4.72;3.67;;;15.80;90.50;;;;;;4988280;28;20045;-55
2021/08/01 02:06:49;;;;;;;4.32;3.63;;;15.80;90.50;;;;;;4989498;28;20069;-55
2021/08/01 02:09:37;;;;;;;5.65;4.03;;;15.80;90.50;;;;;;4989123;28;20192;-55
2021/08/01 02:12:31;;;;;;;6.55;3.00;;;15.80;90.60;;;;;;4990242;28;20019;-55
2021/08/01 02:15:02;;;;;;;3.97;3.58;;;15.70;90.60;;;;;;4988103;28;20089;-55
2021/08/01 02:17:52;;;;;;;3.42;3.08;;;15.70;90.70;;;;;;4994864;28;20038;-56
2021/08/01 02:20:21;;;;;;;5.43;4.03;;;15.70;90.60;;;;;;4989311;28;20076;-57
2021/08/01 02:22:49;;;;;;;4.35;3.78;;;15.60;90.80;;;;;;4989995;28;20034;-55
2021/08/01 02:25:17;;;;;;;5.25;3.55;;;15.60;90.90;;;;;;4988391;28;20049;-54
2021/08/01 02:27:44;;;;;;;4.05;3.63;;;15.60;91.00;;;;;;4992655;28;20034;-55
2021/08/01 02:30:10;;;;;;;4.43;3.42;;;15.50;91.10;;;;;;4988839;28;20060;-55
2021/08/01 02:32:38;;;;;;;3.80;3.25;;;15.60;91.10;;;;;;4989375;28;20038;-56
2021/08/01 02:35:04;;;;;;;6.20;4.05;;;15.50;91.10;;;;;;4988577;28;20364;-57
2021/08/01 02:37:32;;;;;;;4.25;3.85;;;15.50;91.20;;;;;;4990291;28;20092;-55
2021/08/01 02:39:58;;;;;;;3.75;3.42;;;15.50;91.20;;;;;;4990394;28;20376;-54
2021/08/01 02:42:25;;;;;;;4.07;3.60;;;15.50;91.30;;;;;;4989009;28;20038;-55
2021/08/01 02:44:55;;;;;;;5.82;3.70;;;15.50;91.40;;;;;;4990285;28;20031;-53
2021/08/01 02:47:23;;;;;;;4.97;4.15;;;15.50;91.50;;;;;;4993658;28;20038;-57
2021/08/01 02:49:51;;;;;;;4.05;3.22;;;15.50;91.60;;;;;;4990726;28;20178;-54
2021/08/01 02:52:26;;;;;;;4.15;3.17;;;15.40;91.50;;;;;;4995613;28;20054;-55
2021/08/01 02:54:52;;;;;;;4.70;3.05;;;15.50;91.90;;;;;;4997497;28;20478;-54
2021/08/01 02:57:19;;;;;;;5.15;3.20;;;15.40;91.70;;;;;;4987314;28;20049;-54
2021/08/01 02:59:45;;;;;;;4.78;3.65;;;15.50;91.70;;;;;;4989664;28;20490;-55
2021/08/01 03:02:12;;;;;;;4.10;3.50;;;15.40;91.70;;;;;;4988317;28;20038;-54
2021/08/01 03:04:42;;;;;;;5.72;3.60;;;15.40;91.60;;;;;;4992036;28;20889;-56
2021/08/01 03:07:10;;;;;;;5.72;4.00;;;15.40;91.60;;;;;;4990876;28;20030;-55
2021/08/01 03:09:36;;;;;;;3.63;3.30;;;15.50;91.70;;;;;;4989291;28;20501;-55
2021/08/01 03:12:09;;;;;;;6.97;3.40;;;15.50;91.80;;;;;;4987930;28;20154;-54
2021/08/01 03:14:35;;;;;;;5.95;4.60;;;15.40;91.80;;;;;;4992060;28;20027;-55
2021/08/01 03:17:01;;;;;;;5.82;3.08;;;15.40;91.90;;;;;;4988510;28;20030;-54
2021/08/01 03:19:26;;;;;;;4.65;3.97;;;15.40;91.80;;;;;;4988882;28;20034;-54
2021/08/01 03:21:52;;;;;;;7.75;4.72;;;15.40;91.90;;;;;;4991532;28;20069;-55
2021/08/01 03:24:17;;;;;;;5.13;4.22;;;15.30;91.70;;;;;;4988714;28;20101;-56
2021/08/01 03:26:43;;;;;;;4.80;3.92;;;15.30;91.70;;;;;;4992305;28;20037;-55
2021/08/01 03:29:08;;;;;;;7.00;4.80;;;15.30;91.90;;;;;;4988735;28;20030;-53
2021/08/01 03:31:34;;;;;;;7.72;3.40;;;15.30;91.90;;;;;;4987989;28;20479;-54
2021/08/01 03:33:59;;;;;;;6.05;4.57;;;15.20;92.00;;;;;;4993370;28;20044;-56
2021/08/01 03:36:25;;;;;;;3.97;3.53;;;15.20;92.00;;;;;;5012479;23;20052;-75
2021/08/01 03:38:50;;;;;;;;;;;15.20;92.00;;;;;;5027354;28;20152;-75
2021/08/01 03:41:16;;;;;;;4.95;3.60;;;15.10;92.40;;;;;;5028762;28;20021;-75
2021/08/01 03:43:41;;;;;;;9.02;4.07;;;15.20;92.20;;;;;;5028687;28;20137;-75
2021/08/01 03:46:07;;;;;;;4.82;4.22;;;15.20;92.50;;;;;;5018831;28;20112;-75
2021/08/01 03:48:33;;;;;;;4.43;4.03;;;15.20;92.50;;;;;;5011160;28;20515;-75
2021/08/01 03:50:59;;;;;;;5.35;4.07;;;15.20;92.60;;;;;;5010115;28;20013;-79
2021/08/01 03:53:24;;;;;;;4.05;3.65;;;15.20;92.50;;;;;;5027909;28;20044;-79
2021/08/01 03:55:50;;;;;;;;;;;15.20;92.50;;;;;;5027905;28;20108;-79
2021/08/01 03:58:15;;;;;;;7.07;5.22;;;15.30;92.50;;;;;;5030208;28;19920;-79
2021/08/01 04:00:46;;;;;;;13.88;7.93;;;15.30;92.40;;;;;;5029092;28;20060;-80
2021/08/01 04:03:12;;;;;;;6.18;5.22;;;15.30;92.40;;;;;;5027901;28;20413;-79
2021/08/01 04:05:38;;;;;;;12.02;8.15;;;15.30;92.50;;;;;;5029944;28;20081;-79
2021/08/01 04:08:04;;;;;;;13.45;8.55;;;15.30;92.50;;;;;;5012207;28;20022;-79
2021/08/01 04:10:29;;;;;;;14.05;8.10;;;15.30;92.60;;;;;;5028406;28;20032;-79
2021/08/01 04:12:55;;;;;;;17.00;11.93;;;15.30;92.70;;;;;;5028036;28;20028;-79
2021/08/01 04:15:20;;;;;;;6.63;5.47;;;15.30;92.70;;;;;;5028738;28;20045;-79
2021/08/01 04:17:46;;;;;;;13.95;10.13;;;15.30;92.80;;;;;;5029445;28;20113;-79
2021/08/01 04:20:11;;;;;;;;;;;15.30;92.70;;;;;;5027835;28;20167;-79
2021/08/01 04:22:37;;;;;;;7.63;4.85;;;15.30;92.70;;;;;;5029754;28;20330;-79
2021/08/01 04:25:03;;;;;;;;;;;15.40;92.80;;;;;;5009410;28;20039;-79
2021/08/01 04:27:28;;;;;;;11.60;5.97;;;15.40;92.80;;;;;;5029862;28;19909;-79
2021/08/01 04:29:54;;;;;;;11.43;8.45;;;15.40;92.80;;;;;;5027052;28;20034;-79
2021/08/01 04:32:19;;;;;;;7.40;5.63;;;15.40;92.70;;;;;;5028344;28;20025;-79
2021/08/01 04:34:45;;;;;;;8.48;5.05;;;15.50;92.60;;;;;;5027460;28;20404;-79
2021/08/01 04:37:10;;;;;;;21.63;11.38;;;15.50;92.60;;;;;;5012122;28;20056;-79
2021/08/01 04:39:36;;;;;;;12.18;7.22;;;15.60;92.50;;;;;;5004910;28;20522;-79
2021/08/01 04:42:02;;;;;;;10.82;6.07;;;15.80;92.40;;;;;;5029641;28;20108;-79
2021/08/01 04:44:27;;;;;;;9.73;5.55;;;16.00;92.30;;;;;;5009573;28;20455;-80
2021/08/01 04:46:53;;;;;;;10.07;5.15;;;16.20;92.10;;;;;;5029324;28;20025;-80
2021/08/01 04:49:18;;;;;;;7.25;4.45;;;16.50;91.80;;;;;;5014762;28;20029;-79
2021/08/01 04:51:44;;;;;;;5.22;3.60;;;16.60;91.60;;;;;;5033367;28;20487;-79
2021/08/01 04:54:09;;;;;;;5.85;4.15;;;16.80;91.50;;;;;;5014580;28;20091;-79
2021/08/01 04:56:34;;;;;;;5.97;4.35;;;16.90;91.20;;;;;;5033567;28;20280;-79
2021/08/01 04:59:00;;;;;;;5.82;4.32;;;17.00;91.00;;;;;;5031494;28;20036;-79
2021/08/01 05:01:26;;;;;;;6.10;3.80;;;17.00;90.80;;;;;;5030946;28;20029;-79
2021/08/01 05:03:51;;;;;;;5.00;3.35;;;17.10;90.80;;;;;;5031544;28;20034;-80
2021/08/01 05:06:16;;;;;;;5.85;3.15;;;17.20;90.60;;;;;;5024920;28;20030;-80
2021/08/01 05:08:42;;;;;;;7.38;3.80;;;17.30;90.70;;;;;;5023118;28;20392;-79
2021/08/01 05:11:07;;;;;;;3.85;3.53;;;17.30;90.40;;;;;;5031319;28;20032;-80
2021/08/01 05:13:33;;;;;;;3.85;2.97;;;17.30;90.20;;;;;;5032052;28;20029;-80
2021/08/01 05:15:59;;;;;;;4.40;3.60;;;17.50;90.20;;;;;;5032354;28;20030;-80
2021/08/01 05:18:24;;;;;;;4.18;3.38;;;17.50;90.00;;;;;;5032397;28;20448;-80
2021/08/01 05:20:50;;;;;;;5.93;4.10;;;17.60;89.80;;;;;;5020548;28;20022;-79
2021/08/01 05:23:15;;;;;;;4.38;3.50;;;17.70;89.50;;;;;;5032586;28;20088;-79
2021/08/01 05:25:41;;;;;;;4.53;3.47;;;17.80;89.30;;;;;;5023483;28;20037;-80
2021/08/01 05:28:07;;;;;;;7.25;3.65;;;18.00;88.90;;;;;;5031364;28;20034;-79
2021/08/01 05:30:32;;;;;;;3.33;2.67;;;18.10;88.70;;;;;;5023148;28;20033;-79
2021/08/01 05:32:58;;;;;;;3.75;3.28;;;18.30;87.80;;;;;;5030064;28;20116;-79
2021/08/01 05:35:23;;;;;;;4.40;3.17;;;18.50;87.50;;;;;;5014071;28;20103;-80
2021/08/01 05:37:49;;;;;;;4.68;3.92;;;18.50;86.20;;;;;;5030733;28;20043;-80
2021/08/01 05:40:14;;;;;;;6.03;3.53;;;18.40;86.40;;;;;;5030924;28;20515;-80
2021/08/01 05:42:40;;;;;;;3.60;3.28;;;18.40;86.10;;;;;;5013975;28;20065;-80
2021/08/01 05:45:06;;;;;;;6.13;3.70;;;18.20;86.20;;;;;;5029339;28;20021;-80
2021/08/01 05:47:36;;;;;;;6.05;4.30;;;18.20;86.30;;;;;;5021951;28;20029;-79
2021/08/01 05:50:02;;;;;;;4.07;3.47;;;18.10;86.30;;;;;;5029249;28;20404;-79
2021/08/01 05:52:28;;;;;;;7.38;3.53;;;18.10;86.60;;;;;;5031773;28;20068;-80
2021/08/01 05:54:53;;;;;;;6.40;4.00;;;18.10;86.80;;;;;;5031100;28;20025;-79
2021/08/01 05:57:19;;;;;;;5.65;4.30;;;18.10;86.60;;;;;;5032518;28;20037;-79
2021/08/01 05:59:45;;;;;;;12.13;6.45;;;18.20;86.70;;;;;;5030419;28;20048;-80
2021/08/01 06:02:11;;;;;;;8.63;4.88;;;18.20;86.70;;;;;;5022880;28;20029;-79
2021/08/01 06:04:37;;;;;;;6.72;5.50;;;18.20;86.50;;;;;;5027728;28;20528;-80
2021/08/01 06:07:03;;;;;;;7.45;4.75;;;18.30;86.40;;;;;;5029125;28;20057;-80
2021/08/01 06:09:29;;;;;;;7.45;6.10;;;18.30;86.20;;;;;;5012092;28;20037;-80
2021/08/01 06:11:55;;;;;;;7.70;4.45;;;18.30;86.50;;;;;;5031259;28;20022;-80
2021/08/01 06:14:20;;;;;;;7.35;5.20;;;18.30;86.60;;;;;;5030301;28;20516;-80
2021/08/01 06:16:46;;;;;;;7.53;5.00;;;18.30;86.90;;;;;;5031265;28;20101;-79
2021/08/01 06:19:11;;;;;;;6.95;5.15;;;18.40;86.90;;;;;;5032561;28;20025;-79
2021/08/01 06:21:37;;;;;;;5.35;4.85;;;18.40;86.80;;;;;;5012799;28;20033;-79
2021/08/01 06:24:02;;;;;;;4.75;4.30;;;18.50;86.60;;;;;;5029706;28;20444;-80
2021/08/01 06:26:28;;;;;;;6.25;4.20;;;18.60;86.70;;;;;;5031603;28;20519;-79
2021/08/01 06:28:53;;;;;;;9.32;4.97;;;18.70;86.40;;;;;;5030778;28;20033;-79
2021/08/01 06:31:19;;;;;;;7.03;4.40;;;18.80;85.60;;;;;;5030362;28;20105;-79
2021/08/01 06:33:45;;;;;;;8.77;4.45;;;19.00;85.50;;;;;;5029855;28;20070;-80
2021/08/01 06:36:13;;;;;;;4.72;4.28;;;19.20;85.30;;;;;;5028480;28;20075;-79
2021/08/01 06:38:40;;;;;;;5.63;5.10;;;19.30;84.90;;;;;;5029986;28;20021;-80
2021/08/01 06:41:06;;;;;;;5.22;4.43;;;19.40;84.60;;;;;;5025768;28;20029;-80
2021/08/01 06:43:32;;;;;;;8.35;4.75;;;19.40;84.40;;;;;;5029713;28;20496;-80
2021/08/01 06:45:58;;;;;;;5.88;4.82;;;19.50;84.20;;;;;;5027570;28;20038;-80
2021/08/01 06:48:23;;;;;;;6.82;4.45;;;19.50;83.90;;;;;;5028548;28;20101;-80
2021/08/01 06:50:49;;;;;;;4.80;4.15;;;19.50;83.80;;;;;;5030206;28;20032;-81
2021/08/01 06:53:15;;;;;;;7.40;4.38;;;19.50;83.90;;;;;;5028298;28;20499;-80
2021/08/01 06:55:41;;;;;;;7.75;3.85;;;19.50;83.70;;;;;;5025908;28;20029;-80
2021/08/01 06:58:06;;;;;;;4.38;4.05;;;19.50;83.20;;;;;;5010585;28;20071;-80
2021/08/01 07:00:32;;;;;;;6.53;4.07;;;19.40;83.50;;;;;;5027299;28;20022;-80
2021/08/01 07:03:00;;;;;;;4.22;3.55;;;19.40;83.10;;;;;;5029752;28;20140;-79
2021/08/01 07:05:27;;;;;;;4.82;3.13;;;19.40;83.40;;;;;;5025464;28;20030;-78
2021/08/01 07:07:54;;;;;;;6.15;5.07;;;19.40;83.50;;;;;;5027800;28;20030;-78
2021/08/01 07:10:20;;;;;;;3.20;2.90;;;19.60;83.50;;;;;;5011019;28;20031;-78
2021/08/01 07:12:46;;;;;;;6.05;3.78;;;19.70;83.10;;;;;;5028271;28;20032;-78
2021/08/01 07:15:17;;;;;;;4.57;3.97;;;19.70;83.00;;;;;;5028781;28;20397;-78
2021/08/01 07:17:43;;;;;;;6.63;4.10;;;19.70;82.10;;;;;;5028285;28;20365;-78
2021/08/01 07:20:10;;;;;;;4.18;2.90;;;19.70;81.80;;;;;;5028709;28;20492;-78
2021/08/01 07:22:36;;;;;;;3.30;2.88;;;19.70;82.00;;;;;;5024535;28;20136;-79
2021/08/01 07:25:02;;;;;;;7.10;4.15;;;19.70;82.00;;;;;;5027777;28;20156;-72
2021/08/01 07:27:28;;;;;;;6.00;3.45;;;19.70;82.00;;;;;;5028011;28;20425;-78
2021/08/01 07:29:54;;;;;;;4.50;3.25;;;19.90;81.80;;;;;;5028064;28;20130;-78
2021/08/01 07:32:19;;;;;;;6.93;3.83;;;19.90;81.60;;;;;;5029472;28;20033;-78
2021/08/01 07:34:45;;;;;;;4.72;3.63;;;19.90;80.80;;;;;;5026285;28;20535;-78
2021/08/01 07:37:10;;;;;;;3.55;2.78;;;19.70;80.90;;;;;;5011375;28;20026;-78
2021/08/01 07:39:36;;;;;;;7.15;4.13;;;19.50;81.40;;;;;;5015434;28;20060;-79
2021/08/01 07:42:01;;;;;;;3.53;2.88;;;19.50;81.40;;;;;;5028513;28;20052;-78
2021/08/01 07:44:29;;;;;;;6.85;2.60;;;19.50;81.90;;;;;;5008468;28;20087;-79
2021/08/01 07:46:55;;;;;;;3.58;2.45;;;19.60;81.00;;;;;;5027392;28;20080;-78
2021/08/01 07:49:22;;;;;;;6.15;2.70;;;19.60;80.30;;;;;;5027697;28;20037;-78
2021/08/01 07:51:48;;;;;;;5.03;2.75;;;19.50;80.10;;;;;;5027466;28;20083;-78
2021/08/01 07:54:13;;;;;;;7.55;3.45;;;19.40;81.10;;;;;;5026429;28;20427;-78
2021/08/01 07:56:39;;;;;;;10.60;4.28;;;19.50;81.60;;;;;;5027988;28;20025;-78
2021/08/01 07:59:04;;;;;;;4.10;2.58;;;19.60;81.00;;;;;;5025088;28;20048;-78
2021/08/01 08:01:29;;;;;;;3.75;2.55;;;19.80;80.60;;;;;;5026506;28;20033;-78
2021/08/01 08:03:55;;;;;;;6.03;2.92;;;19.80;80.80;;;;;;5027752;28;20411;-78
2021/08/01 08:06:20;;;;;;;4.53;2.83;;;19.90;80.30;;;;;;5027985;28;20084;-74
2021/08/01 08:08:46;;;;;;;3.42;3.10;;;20.00;80.20;;;;;;5029263;28;20504;-74
2021/08/01 08:11:11;;;;;;;4.30;3.10;;;20.20;80.40;;;;;;5010247;28;20032;-72
2021/08/01 08:13:37;;;;;;;4.68;2.97;;;20.40;79.90;;;;;;5026370;28;20026;-73
2021/08/01 08:16:03;;;;;;;4.85;3.05;;;20.60;79.00;;;;;;5028679;28;20108;-74
2021/08/01 08:18:28;;;;;;;4.32;2.67;;;20.70;77.90;;;;;;5028521;28;20025;-74
2021/08/01 08:20:53;;;;;;;5.47;2.67;;;20.70;78.50;;;;;;5031389;28;20488;-74
2021/08/01 08:23:19;;;;;;;4.32;2.80;;;20.70;77.90;;;;;;5031066;28;20087;-74
2021/08/01 08:25:45;;;;;;;4.45;2.88;;;20.80;77.30;;;;;;5033465;28;20419;-73
2021/08/01 08:28:10;;;;;;;3.22;2.92;;;20.80;77.30;;;;;;5032820;28;20469;-73
2021/08/01 08:30:36;;;;;;;8.02;2.70;;;20.80;76.60;;;;;;5032394;28;20021;-73
2021/08/01 08:33:01;;;;;;;3.17;2.60;;;20.60;76.80;;;;;;5032805;28;20431;-73
2021/08/01 08:35:27;;;;;;;4.45;2.80;;;20.60;77.10;;;;;;5030708;28;20038;-73
2021/08/01 08:37:53;;;;;;;2.88;1.75;;;20.60;76.00;;;;;;5032750;28;20109;-73
2021/08/01 08:40:20;;;;;;;4.70;2.90;;;20.40;76.30;;;;;;5032192;28;20037;-73
2021/08/01 08:42:48;;;;;;;5.15;2.25;;;20.40;76.50;;;;;;5032885;28;20060;-74
2021/08/01 08:45:17;;;;;;;7.63;2.72;;;20.50;76.40;;;;;;5030373;28;20038;-73
2021/08/01 08:47:44;;;;;;;5.32;2.53;;;20.40;75.80;;;;;;5032941;28;20056;-73
2021/08/01 08:50:14;;;;;;;3.33;2.65;;;20.30;75.80;;;;;;5031866;28;20025;-73
2021/08/01 08:52:43;;;;;;;4.07;2.47;;;20.10;76.20;;;;;;5029004;28;20018;-74
2021/08/01 08:55:10;;;;;;;3.80;2.28;;;20.10;77.00;;;;;;5031913;28;20091;-73
2021/08/01 08:57:44;;;;;;;5.18;3.10;;;20.30;77.20;;;;;;5031056;28;20527;-73
2021/08/01 09:00:13;;;;;;;3.03;2.53;;;20.70;77.10;;;;;;5029528;28;20029;-74
2021/08/01 09:02:39;;;;;;;2.60;2.38;;;20.80;76.60;;;;;;5031071;28;20159;-71
2021/08/01 09:05:06;;;;;;;4.00;2.85;;;21.00;76.30;;;;;;5028953;28;20033;-71
2021/08/01 09:07:38;;;;;;;5.22;2.70;;;21.10;76.20;;;;;;5029983;28;20053;-73
2021/08/01 09:10:05;;;;;;;5.45;3.35;;;21.40;76.00;;;;;;5029643;28;20034;-73
2021/08/01 09:12:38;;;;;;;5.00;2.80;;;21.60;75.70;;;;;;5022124;28;20536;-73
2021/08/01 09:15:16;;;;;;;4.22;2.40;;;21.80;73.40;;;;;;5030127;28;20038;-72
2021/08/01 09:17:42;;;;;;;4.70;3.25;;;21.70;73.80;;;;;;5030433;28;20026;-73
2021/08/01 09:20:29;;;;;;;4.60;2.90;;;21.70;74.70;;;;;;5030484;28;20029;-73
2021/08/01 09:23:00;;;;;;;5.25;3.78;;;21.80;74.70;;;;;;5030897;28;20561;-73
2021/08/01 09:25:31;;;;;;;5.68;3.13;;;22.00;74.50;;;;;;5028739;28;20033;-72
2021/08/01 09:28:19;;;;;;;6.03;3.50;;;22.10;74.00;;;;;;5029080;28;20474;-73
2021/08/01 09:30:55;;;;;;;3.72;2.50;;;22.20;74.20;;;;;;5030994;28;20034;-72
2021/08/01 09:33:33;;;;;;;3.83;2.70;;;22.30;72.30;;;;;;5029943;28;20049;-73
2021/08/01 09:36:13;;;;;;;5.65;2.97;;;22.20;71.90;;;;;;5030616;28;20044;-72
2021/08/01 09:38:48;;;;;;;4.05;2.15;;;22.20;72.70;;;;;;5030425;28;20388;-73
2021/08/01 09:41:17;;;;;;;6.80;2.63;;;22.20;72.70;;;;;;5028803;28;20029;-73
2021/08/01 09:43:56;;;;;;;3.90;2.60;;;22.30;72.10;;;;;;5029440;28;20018;-73
2021/08/01 09:46:38;;;;;;;3.65;2.58;;;22.20;71.20;;;;;;5006134;28;20043;-73
2021/08/01 09:49:24;;;;;;;4.03;2.00;;;22.30;72.20;;;;;;5030209;28;20029;-73
2021/08/01 09:51:55;;;;;;;4.95;1.70;;;22.30;71.40;;;;;;5012651;28;20120;-72
2021/08/01 09:54:42;;;;;;;4.00;1.63;;;22.30;71.40;;;;;;5030128;28;20431;-73
2021/08/01 09:57:07;;;;;;;4.65;2.50;;;22.40;71.80;;;;;;5013220;28;20120;-73
2021/08/01 09:59:33;;;;;;;3.20;2.47;;;22.50;70.90;;;;;;5029340;28;20670;-73
2021/08/01 10:02:02;;;;;;;6.20;2.42;;;22.60;70.10;;;;;;5029773;28;20033;-73
2021/08/01 10:04:42;;;;;;;2.35;1.90;;;22.60;70.50;;;;;;5026925;28;20455;-73
2021/08/01 10:07:13;;;;;;;4.32;2.38;;;22.70;69.90;;;;;;5027222;28;20108;-74
2021/08/01 10:09:40;;;;;;;1.77;1.42;;;22.90;70.20;;;;;;5027083;28;20378;-74
2021/08/01 10:12:07;;;;;;;5.88;2.70;;;23.10;69.90;;;;;;5011181;28;20060;-74
2021/08/01 10:14:33;;;;;;;22.60;4.82;;;23.20;69.10;;;;;;5029557;28;20095;-74
2021/08/01 10:17:00;;;;;;;11.73;3.20;;;23.20;69.10;;;;;;5028688;28;20025;-74
2021/08/01 10:19:26;;;;;;;5.95;3.30;;;23.30;68.40;;;;;;5029346;28;20088;-74
2021/08/01 10:21:57;;;;;;;7.57;2.67;;;23.30;68.40;;;;;;5027838;28;20400;-74
2021/08/01 10:24:30;;;;;;;6.18;3.58;;;23.20;68.10;;;;;;5027388;28;20077;-74
2021/08/01 10:27:02;;;;;;;4.85;2.22;;;23.00;67.70;;;;;;5027005;28;20546;-74
2021/08/01 10:29:34;;;;;;;7.55;2.95;;;22.90;68.20;;;;;;5027517;28;20037;-73
2021/08/01 10:32:09;;;;;;;3.28;2.10;;;23.00;68.00;;;;;;5029146;28;20051;-73
2021/08/01 10:35:01;;;;;;;2.60;1.75;;;23.00;67.60;;;;;;5026802;28;20072;-73
2021/08/01 10:37:51;;;;;;;2.33;1.92;;;23.00;68.60;;;;;;5028946;28;20384;-73
2021/08/01 10:40:23;;;;;;;3.45;2.63;;;23.20;67.60;;;;;;5028011;28;20090;-74
2021/08/01 10:42:55;;;;;;;5.10;2.47;;;23.00;66.90;;;;;;5001483;28;20159;-81
2021/08/01 10:45:21;;;;;;;4.82;2.38;;;22.90;67.80;;;;;;5008783;28;20061;-79
2021/08/01 10:47:51;;;;;;;2.42;1.80;;;23.00;67.80;;;;;;5030224;28;20017;-79
2021/08/01 10:50:20;;;;;;;3.42;2.60;;;23.10;67.90;;;;;;5029998;28;20148;-79
2021/08/01 10:52:45;;;;;;;6.82;2.38;;;23.20;67.60;;;;;;5029302;28;20033;-79
2021/08/01 10:55:21;;;;;;;3.42;2.42;;;23.30;67.10;;;;;;5029215;28;20095;-79
2021/08/01 10:58:11;;;;;;;2.22;1.88;;;23.40;67.40;;;;;;5029250;28;20033;-79
2021/08/01 11:00:55;;;;;;;3.17;1.90;;;23.40;66.70;;;;;;5028149;28;20041;-79
2021/08/01 11:03:21;;;;;;;2.75;1.77;;;23.30;66.10;;;;;;5028798;28;20035;-79
2021/08/01 11:05:54;;;;;;;3.42;1.80;;;23.00;66.60;;;;;;5083443;27;20468;-58
2021/08/01 11:08:20;;;;;;;5.75;2.15;;;22.90;67.00;;;;;;5083821;28;20021;-58
2021/08/01 11:10:46;;;;;;;2.97;2.63;;;22.70;67.20;;;;;;5083435;28;20078;-58
2021/08/01 11:13:31;;;;;;;3.40;2.88;;;22.50;67.90;;;;;;5084268;28;20025;-60
2021/08/01 11:15:57;;;;;;;2.60;2.33;;;22.10;68.40;;;;;;5082863;28;20072;-58
2021/08/01 11:18:33;;;;;;;6.78;2.83;;;21.80;70.10;;;;;;5082941;28;20813;-58
2021/08/01 11:21:03;;;;;;;7.13;2.40;;;21.50;72.90;;;;;;5083583;28;20027;-59
2021/08/01 11:23:44;;;;;;;4.53;3.30;;;21.10;76.50;;;;;;5083566;28;20023;-59
2021/08/01 11:26:11;;;;;;;15.60;4.28;;;20.50;80.80;;;;;;5084164;28;20490;-59
2021/08/01 11:28:39;;;;;;;8.80;3.97;;;20.00;84.90;;;;;;5084579;28;20025;-58
2021/08/01 11:31:04;;;;;;;9.95;6.97;;;19.40;85.90;;;;;;5084384;28;20059;-56
2021/08/01 11:33:44;;;;;;;8.70;6.55;;;19.00;85.50;;;;;;5082412;28;20048;-58
2021/08/01 11:36:12;;;;;;;6.63;4.85;;;18.70;86.40;;;;;;5083701;28;20097;-58
2021/08/01 11:38:59;;;;;;;15.20;10.20;;;18.50;88.20;;;;;;5084097;28;20023;-59
2021/08/01 11:41:49;;;;;;;;;;;18.40;90.20;;;;;;5084441;28;20023;-57
2021/08/01 11:44:24;;;;;;;19.00;10.65;;;18.50;89.40;;;;;;5083088;28;20396;-58
2021/08/01 11:46:59;;;;;;;21.85;15.23;;;18.60;91.00;;;;;;5083481;28;20025;-57
2021/08/01 11:49:29;;;;;;;7.57;6.55;;;18.80;90.90;;;;;;5082650;28;20048;-58
2021/08/01 11:51:56;;;;;;;10.25;6.75;;;19.20;90.70;;;;;;5082404;28;20115;-55
2021/08/01 11:54:33;;;;;;;10.80;8.25;;;19.40;90.30;;;;;;5082585;28;20028;-58
2021/08/01 11:57:15;;;;;;;11.40;8.48;;;19.60;90.00;;;;;;5083541;28;20085;-57
2021/08/01 11:59:42;;;;;;;11.15;7.13;;;19.80;89.20;;;;;;5083261;28;20025;-59
2021/08/01 12:02:15;;;;;;;9.30;7.22;;;20.00;88.30;;;;;;5083563;28;20054;-59
2021/08/01 12:04:52;;;;;;;6.88;5.22;;;20.20;87.80;;;;;;5082851;28;20020;-59
2021/08/01 12:07:18;;;;;;;23.15;18.58;;;20.40;86.90;;;;;;5081970;28;20021;-58
2021/08/01 12:09:43;;;;;;;33.25;23.83;;;20.70;86.70;;;;;;5083337;28;20381;-55
2021/08/01 12:12:10;;;;;;;10.20;7.18;;;20.80;85.90;;;;;;5083620;28;20382;-58
2021/08/01 12:14:38;;;;;;;14.75;11.07;;;21.00;85.70;;;;;;5082191;28;20032;-58
2021/08/01 12:17:09;;;;;;;6.95;4.60;;;21.00;84.40;;;;;;5070940;28;20115;-59
2021/08/01 12:19:54;;;;;;;6.50;4.05;;;21.10;84.00;;;;;;5070051;28;20060;-58
2021/08/01 12:22:24;;;;;;;5.10;4.30;;;21.40;83.00;;;;;;5069539;28;20033;-57
2021/08/01 12:24:51;;;;;;;5.82;3.28;;;21.60;82.70;;;;;;5066944;28;20032;-58
2021/08/01 12:27:22;;;;;;;4.38;3.25;;;21.70;82.20;;;;;;5069343;28;20052;-57
2021/08/01 12:29:55;;;;;;;4.38;2.97;;;21.80;81.00;;;;;;5069746;28;20020;-58
2021/08/01 12:32:31;;;;;;;3.25;2.95;;;21.80;80.40;;;;;;5069805;28;20013;-56
2021/08/01 12:35:01;;;;;;;;;;;21.60;80.80;;;;;;5069344;28;20025;-59
2021/08/01 12:37:28;;;;;;;4.47;2.83;;;21.50;82.20;;;;;;5068491;28;19904;-59
2021/08/01 12:39:54;;;;;;;5.72;3.45;;;21.20;82.70;;;;;;5069353;28;20513;-56
2021/08/01 12:42:21;;;;;;;4.45;2.70;;;21.00;83.60;;;;;;5062947;28;20503;-56
2021/08/01 12:45:00;;;;;;;7.88;3.58;;;20.70;83.40;;;;;;5069094;28;20033;-57
2021/08/01 12:47:28;;;;;;;5.50;2.88;;;20.70;84.30;;;;;;5069547;28;20167;-59
2021/08/01 12:50:05;;;;;;;5.22;2.70;;;20.70;84.70;;;;;;5067626;28;20107;-56
2021/08/01 12:52:31;;;;;;;7.00;4.20;;;20.80;83.90;;;;;;5065886;28;20017;-57
2021/08/01 12:54:56;;;;;;;6.68;3.47;;;20.90;84.70;;;;;;5068222;28;20169;-60